Palito Blanco, Texas
Current Conditions -  °F | °C
As of 9:53 AM on Sunday 23 Nov 2014 (Local Time) from KALI Reporting Station
Clear Clear  
Wind Chill: 20°   Ceiling: Unl
Heat Index: 20°   Visibility: 10mi
Dew Point: 14°   Wind: 8mph
Humidity: 70%   Direction: 220°SW
Pressure: 29.75"   Gusts: NA
Location:  27.6821°N, 98.1034°W
Report Text: KALI 231553Z AUTO 22007KT 10SM CLR 20/14 A2975 RMK AO2 SLP073 T02000144
Loading
Personal Weather Stations






























Interactive Weather Map New forecast layout! Learn more

10-Day Weather Forecast

Advertisements
Track Severe Weather on mobile